ABQ weather

Albuquerque International Sunport
Albuquerque, New Mexico, United States

Public forecast

Using degrees Fahrenheit for public forecast. Weather courtesy of forecast.io.

Current aviation weather report (METAR) for Albuquerque International Sunport

Retrieved 2019/11/19 16:52 UTC (30 minutes ago):

KABQ 191652Z 00000KT 10SM FEW200 FEW250 08/M04 A3007 RMK AO2 SLP150 T00781039

Aviation forecast (TAF) for Albuquerque International Sunport

Retrieved 2019/11/19 12:27 UTC (5 hours ago):

TAF KABQ 191120Z 1912/2012 35004KT P6SM SCT250 FM191800 22005KT P6SM SCT200 FM200100 14006KT P6SM BKN120 FM200700 17006KT P6SM VCSH OVC080